createdAt,value
2023-03-19T00:02:17.048Z,8.30
2023-03-19T00:06:19.979Z,8.30
2023-03-19T00:10:21.816Z,8.50
2023-03-19T00:14:24.793Z,8.30
2023-03-19T00:18:26.540Z,8.20
2023-03-19T00:22:28.354Z,7.70
2023-03-19T00:26:32.004Z,7.90
2023-03-19T00:30:34.012Z,8.20
2023-03-19T00:34:35.909Z,8.30
2023-03-19T00:38:37.835Z,8.40
2023-03-19T00:42:39.890Z,8.20
2023-03-19T00:46:41.766Z,7.30
2023-03-19T00:50:43.733Z,7.80
2023-03-19T00:54:46.086Z,8.10
2023-03-19T00:58:48.363Z,8.00
2023-03-19T01:02:50.491Z,7.90
2023-03-19T01:06:52.307Z,7.40
2023-03-19T01:10:54.124Z,7.40
2023-03-19T01:14:56.359Z,6.80
2023-03-19T01:18:58.545Z,6.70
2023-03-19T01:23:01.559Z,6.50
2023-03-19T01:27:03.758Z,5.10
2023-03-19T01:31:08.679Z,5.10
2023-03-19T01:35:26.358Z,5.10
2023-03-19T01:39:28.769Z,5.70
2023-03-19T01:43:32.654Z,5.70
2023-03-19T01:47:44.914Z,5.80
2023-03-19T01:51:47.904Z,5.90
2023-03-19T01:56:21.067Z,6.00
2023-03-19T02:00:38.313Z,6.40
2023-03-19T02:04:43.474Z,6.90
2023-03-19T02:08:46.839Z,7.30
2023-03-19T02:12:49.195Z,7.40
2023-03-19T02:16:51.568Z,7.50
2023-03-19T02:21:05.700Z,7.40
2023-03-19T02:25:18.775Z,6.60
2023-03-19T02:29:21.472Z,6.90
2023-03-19T02:33:23.615Z,7.30
2023-03-19T02:37:30.575Z,7.10
2023-03-19T02:41:37.036Z,6.90
2023-03-19T02:45:39.491Z,7.30
2023-03-19T02:49:41.502Z,6.60
2023-03-19T02:53:43.335Z,6.30
2023-03-19T02:57:46.601Z,6.80
2023-03-19T03:01:48.589Z,7.10
2023-03-19T03:05:50.445Z,7.70
2023-03-19T03:09:52.605Z,7.80
2023-03-19T03:13:54.368Z,7.80
2023-03-19T03:17:56.796Z,8.00
2023-03-19T03:22:00.668Z,7.20
2023-03-19T03:26:02.824Z,7.20
2023-03-19T03:30:09.113Z,6.10
2023-03-19T03:34:11.208Z,6.80
2023-03-19T03:38:13.085Z,7.30
2023-03-19T03:42:15.202Z,7.20
2023-03-19T03:46:17.814Z,7.40
2023-03-19T03:50:21.661Z,7.70
2023-03-19T03:54:26.690Z,7.70
2023-03-19T03:58:28.536Z,7.90
2023-03-19T04:02:30.808Z,7.80
2023-03-19T04:06:32.749Z,7.20
2023-03-19T04:10:46.681Z,7.70
2023-03-19T04:14:48.518Z,7.20
2023-03-19T04:18:50.710Z,7.30
2023-03-19T04:22:53.273Z,7.50
2023-03-19T04:26:55.166Z,7.80
2023-03-19T04:31:06.008Z,8.10
2023-03-19T04:35:09.423Z,8.10
2023-03-19T04:39:11.267Z,8.00
2023-03-19T04:43:13.413Z,8.20
2023-03-19T04:47:16.241Z,8.40
2023-03-19T04:51:26.294Z,8.70
2023-03-19T04:55:28.635Z,8.50
2023-03-19T05:00:00.165Z,8.30
2023-03-19T05:04:03.628Z,7.90
2023-03-19T05:08:08.656Z,7.60
2023-03-19T05:12:12.367Z,7.40
2023-03-19T05:16:20.282Z,7.50
2023-03-19T05:20:23.783Z,7.90
2023-03-19T05:24:32.233Z,8.40
2023-03-19T05:28:35.581Z,8.80
2023-03-19T05:32:38.323Z,8.70
2023-03-19T05:36:42.908Z,8.80
2023-03-19T05:40:49.929Z,9.00
2023-03-19T05:45:00.704Z,9.10
2023-03-19T05:49:11.278Z,8.80
2023-03-19T05:53:13.274Z,9.10
2023-03-19T05:57:22.076Z,9.10
2023-03-19T06:01:44.271Z,9.20
2023-03-19T06:05:50.407Z,9.20
2023-03-19T06:10:09.202Z,8.70
2023-03-19T06:14:11.539Z,8.80
2023-03-19T06:18:17.483Z,8.00
2023-03-19T06:22:19.657Z,8.20
2023-03-19T06:26:22.128Z,8.40
2023-03-19T06:30:28.350Z,8.60
2023-03-19T06:34:33.528Z,8.70
2023-03-19T06:38:36.790Z,8.60
2023-03-19T06:42:38.562Z,8.80
2023-03-19T06:46:48.370Z,8.70
2023-03-19T06:50:50.414Z,8.70
2023-03-19T06:54:52.171Z,8.70
2023-03-19T06:58:53.980Z,8.80
2023-03-19T07:02:55.813Z,9.00
2023-03-19T07:06:57.605Z,9.00
2023-03-19T07:11:07.248Z,9.00
2023-03-19T07:15:09.267Z,8.80
2023-03-19T07:19:11.471Z,8.40
2023-03-19T07:23:13.393Z,8.30
2023-03-19T07:27:15.227Z,8.60
2023-03-19T07:31:17.625Z,8.60
2023-03-19T07:35:19.443Z,8.50
2023-03-19T07:39:21.867Z,8.60
2023-03-19T07:43:23.672Z,8.90
2023-03-19T07:47:29.348Z,9.00
2023-03-19T07:51:31.518Z,9.20
2023-03-19T07:55:33.386Z,9.10
2023-03-19T07:59:35.127Z,8.80
2023-03-19T08:03:36.897Z,8.90
2023-03-19T08:07:38.681Z,9.30
2023-03-19T08:11:40.520Z,9.20
2023-03-19T08:15:42.504Z,9.30
2023-03-19T08:19:44.329Z,9.50
2023-03-19T08:23:46.255Z,9.60
2023-03-19T08:27:48.715Z,9.90
2023-03-19T08:31:50.522Z,9.80
2023-03-19T08:35:52.503Z,9.90
2023-03-19T08:39:54.425Z,9.90
2023-03-19T08:43:56.226Z,9.50
2023-03-19T08:47:58.514Z,9.70
2023-03-19T08:52:00.456Z,9.90
2023-03-19T08:56:04.909Z,9.80
2023-03-19T09:00:07.789Z,9.70
2023-03-19T09:04:09.658Z,9.80
2023-03-19T09:08:11.502Z,10.10
2023-03-19T09:12:15.731Z,9.70
2023-03-19T09:16:17.698Z,10.10
2023-03-19T09:20:19.600Z,10.40
2023-03-19T09:24:21.388Z,10.50
2023-03-19T09:28:23.520Z,10.70
2023-03-19T09:32:25.783Z,10.50
2023-03-19T09:36:27.630Z,10.30
2023-03-19T09:40:39.331Z,10.70
2023-03-19T09:44:44.254Z,10.90
2023-03-19T09:48:53.102Z,10.80
2023-03-19T09:53:00.705Z,11.10
2023-03-19T09:57:02.787Z,11.30
2023-03-19T10:01:04.911Z,11.30
2023-03-19T10:05:16.539Z,11.40
2023-03-19T10:09:43.096Z,11.60
2023-03-19T10:13:56.554Z,11.60
2023-03-19T10:18:21.120Z,11.20
2023-03-19T10:22:29.718Z,11.10
2023-03-19T10:26:36.665Z,11.00
2023-03-19T10:30:38.655Z,11.20
2023-03-19T10:34:46.374Z,11.20
2023-03-19T10:38:48.266Z,11.20
2023-03-19T10:43:20.967Z,10.90
2023-03-19T10:47:26.380Z,10.90
2023-03-19T10:51:28.262Z,11.30
2023-03-19T10:55:31.512Z,11.00
2023-03-19T10:59:38.213Z,11.10
2023-03-19T11:03:56.089Z,11.20
2023-03-19T11:08:34.566Z,10.50
2023-03-19T11:12:37.756Z,10.30
2023-03-19T11:16:57.579Z,10.80
2023-03-19T11:21:05.576Z,11.30
2023-03-19T11:25:27.961Z,11.20
2023-03-19T11:29:31.084Z,11.20
2023-03-19T11:33:50.216Z,11.30
2023-03-19T11:37:52.026Z,11.30
2023-03-19T11:42:31.002Z,11.30
2023-03-19T11:46:42.061Z,11.20
2023-03-19T11:50:54.016Z,11.40
2023-03-19T11:55:15.913Z,11.30
2023-03-19T11:59:39.746Z,11.60
2023-03-19T12:03:55.688Z,10.90
2023-03-19T12:08:06.431Z,11.40
2023-03-19T12:12:26.812Z,11.90
2023-03-19T12:16:47.343Z,12.00
2023-03-19T12:21:15.222Z,12.30
2023-03-19T12:25:47.830Z,12.10
2023-03-19T12:30:26.863Z,12.40
2023-03-19T12:34:36.482Z,12.70
2023-03-19T12:38:53.582Z,12.70
2023-03-19T12:42:59.044Z,12.40
2023-03-19T12:47:13.211Z,12.80
2023-03-19T12:51:21.679Z,12.60
2023-03-19T12:55:40.327Z,12.70
2023-03-19T12:59:55.647Z,12.50
2023-03-19T13:04:39.930Z,12.10
2023-03-19T13:09:10.452Z,12.10
2023-03-19T13:13:27.354Z,12.40
2023-03-19T13:17:53.328Z,12.80
2023-03-19T13:21:59.459Z,12.90
2023-03-19T13:26:04.621Z,13.10
2023-03-19T13:30:26.781Z,12.90
2023-03-19T13:34:32.707Z,13.00
2023-03-19T13:38:46.125Z,13.30
2023-03-19T13:42:57.101Z,13.10
2023-03-19T13:47:21.565Z,13.10
2023-03-19T13:51:28.138Z,13.60
2023-03-19T13:55:55.257Z,13.10
2023-03-19T13:59:57.248Z,13.20
2023-03-19T14:04:04.327Z,13.20
2023-03-19T14:08:19.808Z,13.50
2023-03-19T14:12:29.719Z,13.00
2023-03-19T14:16:38.391Z,13.50
2023-03-19T14:20:59.352Z,12.30
2023-03-19T14:25:15.364Z,12.90
2023-03-19T14:29:18.667Z,13.20
2023-03-19T14:33:26.408Z,13.30
2023-03-19T14:37:37.386Z,13.50
2023-03-19T14:41:43.089Z,13.10
2023-03-19T14:46:04.432Z,12.30
2023-03-19T14:50:36.168Z,12.20
2023-03-19T14:54:50.756Z,12.20
2023-03-19T14:58:57.276Z,12.10
2023-03-19T15:02:59.102Z,12.00
2023-03-19T15:07:01.457Z,11.80
2023-03-19T15:11:36.936Z,11.00
2023-03-19T15:16:00.754Z,10.70
2023-03-19T15:20:13.085Z,11.10
2023-03-19T15:24:16.501Z,11.00
2023-03-19T15:28:19.883Z,11.00
2023-03-19T15:37:05.278Z,10.90
2023-03-19T15:41:10.407Z,11.20
2023-03-19T15:45:14.972Z,11.10
2023-03-19T15:49:41.848Z,11.00
2023-03-19T15:53:44.753Z,10.90
2023-03-19T15:57:47.682Z,10.60
2023-03-19T16:01:51.068Z,10.70
2023-03-19T16:06:02.009Z,10.30
2023-03-19T16:10:33.224Z,10.60
2023-03-19T16:14:43.119Z,10.80
2023-03-19T16:18:53.596Z,10.60
2023-03-19T16:22:58.692Z,10.60
2023-03-19T16:27:23.333Z,10.70
2023-03-19T16:31:32.034Z,10.80
2023-03-19T16:35:36.670Z,10.80
2023-03-19T16:39:54.403Z,10.80
2023-03-19T16:44:00.774Z,10.70
2023-03-19T16:48:03.526Z,10.00
2023-03-19T16:52:07.241Z,9.60
2023-03-19T16:56:12.738Z,9.60
2023-03-19T17:00:15.609Z,9.60
2023-03-19T17:04:17.694Z,10.00
2023-03-19T17:08:21.770Z,9.60
2023-03-19T17:12:23.589Z,9.70
2023-03-19T17:16:27.183Z,10.00
2023-03-19T17:20:47.761Z,10.10
2023-03-19T17:24:49.765Z,9.90
2023-03-19T17:28:53.674Z,9.90
2023-03-19T17:32:57.064Z,9.60
2023-03-19T17:37:01.492Z,9.90
2023-03-19T17:41:14.046Z,9.90
2023-03-19T17:45:17.949Z,9.40
2023-03-19T17:49:29.024Z,9.80
2023-03-19T17:53:31.034Z,9.80
2023-03-19T17:57:32.945Z,9.90
2023-03-19T18:01:35.151Z,10.00
2023-03-19T18:05:37.000Z,10.00
2023-03-19T18:09:38.837Z,10.00
2023-03-19T18:13:41.448Z,10.00
2023-03-19T18:17:48.330Z,10.00
2023-03-19T18:21:50.402Z,9.80
2023-03-19T18:25:52.287Z,9.70
2023-03-19T18:29:54.114Z,9.50
2023-03-19T18:34:02.238Z,9.50
2023-03-19T18:38:04.872Z,9.40
2023-03-19T18:42:06.820Z,9.50
2023-03-19T18:46:13.437Z,9.40
2023-03-19T18:50:24.749Z,9.40
2023-03-19T18:54:26.602Z,9.30
2023-03-19T18:58:29.182Z,9.20
2023-03-19T19:02:35.204Z,9.10
2023-03-19T19:06:47.447Z,9.00
2023-03-19T19:10:53.620Z,8.90
2023-03-19T19:14:57.062Z,8.90
2023-03-19T19:18:58.849Z,8.90
2023-03-19T19:23:00.664Z,8.90
2023-03-19T19:27:02.914Z,9.00
2023-03-19T19:31:05.009Z,9.00
2023-03-19T19:35:21.050Z,9.00
2023-03-19T19:39:24.175Z,9.00
2023-03-19T19:43:30.825Z,9.00
2023-03-19T19:47:35.785Z,8.50
2023-03-19T19:51:38.773Z,8.40
2023-03-19T19:55:41.414Z,8.50
2023-03-19T19:59:43.245Z,8.60
2023-03-19T20:03:47.950Z,8.60
2023-03-19T20:07:51.440Z,8.80
2023-03-19T20:11:53.273Z,8.70
2023-03-19T20:15:57.545Z,8.50
2023-03-19T20:19:59.419Z,8.40
2023-03-19T20:24:01.718Z,8.70
2023-03-19T20:28:04.841Z,8.90
2023-03-19T20:32:22.097Z,8.80
2023-03-19T20:36:23.960Z,8.90
2023-03-19T20:40:36.909Z,9.00
2023-03-19T20:44:38.787Z,9.00
2023-03-19T20:48:40.640Z,9.10
2023-03-19T20:52:42.411Z,9.20
2023-03-19T20:56:45.823Z,9.00
2023-03-19T21:00:47.646Z,8.80
2023-03-19T21:04:49.671Z,9.00
2023-03-19T21:08:56.847Z,9.00
2023-03-19T21:12:59.956Z,9.00
2023-03-19T21:17:01.731Z,9.00
2023-03-19T21:21:03.686Z,9.00
2023-03-19T21:25:11.529Z,9.10
2023-03-19T21:29:31.293Z,8.90
2023-03-19T21:33:35.396Z,8.50
2023-03-19T21:37:39.385Z,8.30
2023-03-19T21:41:42.168Z,8.50
2023-03-19T21:45:45.428Z,8.70
2023-03-19T21:49:48.484Z,8.80
2023-03-19T21:53:50.682Z,8.70
2023-03-19T21:57:56.883Z,8.30
2023-03-19T22:01:58.776Z,8.20
2023-03-19T22:06:00.590Z,8.20
2023-03-19T22:10:02.658Z,8.10
2023-03-19T22:14:12.104Z,8.30
2023-03-19T22:18:15.781Z,8.40
2023-03-19T22:22:17.575Z,8.60
2023-03-19T22:26:40.987Z,8.50
2023-03-19T22:30:43.163Z,8.20
2023-03-19T22:34:45.435Z,8.20
2023-03-19T22:38:48.774Z,8.50
2023-03-19T22:42:50.733Z,8.70
2023-03-19T22:46:53.938Z,8.60
2023-03-19T22:50:57.119Z,7.70
2023-03-19T22:54:58.894Z,7.40
2023-03-19T22:59:01.170Z,8.00
2023-03-19T23:03:03.208Z,8.40
2023-03-19T23:07:05.405Z,8.60
2023-03-19T23:11:07.834Z,8.30
2023-03-19T23:15:10.067Z,8.60
2023-03-19T23:19:24.052Z,8.70
2023-03-19T23:23:27.158Z,8.60
2023-03-19T23:27:29.033Z,8.40
2023-03-19T23:31:31.933Z,8.60
2023-03-19T23:35:35.276Z,8.60
2023-03-19T23:39:39.596Z,8.40
2023-03-19T23:43:41.917Z,8.50
2023-03-19T23:47:43.757Z,8.60
2023-03-19T23:51:45.663Z,8.70
2023-03-19T23:55:54.235Z,8.50
2023-03-19T23:59:56.369Z,8.20
